sensor_id;sensor_type;location;lat;lon;timestamp;P1;durP1;ratioP1;P2;durP2;ratioP2
2173;SDS011;1093;51.424;11.764;2023-04-09T00:01:00;47.43;;;27.50;;
2173;SDS011;1093;51.424;11.764;2023-04-09T00:03:29;46.80;;;26.77;;
2173;SDS011;1093;51.424;11.764;2023-04-09T00:05:56;49.23;;;29.30;;
2173;SDS011;1093;51.424;11.764;2023-04-09T00:08:23;50.00;;;26.47;;
2173;SDS011;1093;51.424;11.764;2023-04-09T00:10:49;46.33;;;28.40;;
2173;SDS011;1093;51.424;11.764;2023-04-09T00:13:16;47.53;;;29.00;;
2173;SDS011;1093;51.424;11.764;2023-04-09T00:15:44;49.10;;;27.43;;
2173;SDS011;1093;51.424;11.764;2023-04-09T00:18:11;48.73;;;28.70;;
2173;SDS011;1093;51.424;11.764;2023-04-09T00:20:39;54.30;;;28.90;;
2173;SDS011;1093;51.424;11.764;2023-04-09T00:23:06;48.57;;;26.47;;
2173;SDS011;1093;51.424;11.764;2023-04-09T00:25:33;47.80;;;27.23;;
2173;SDS011;1093;51.424;11.764;2023-04-09T00:28:00;50.63;;;30.37;;
2173;SDS011;1093;51.424;11.764;2023-04-09T00:30:27;52.50;;;30.57;;
2173;SDS011;1093;51.424;11.764;2023-04-09T00:32:53;53.47;;;30.27;;
2173;SDS011;1093;51.424;11.764;2023-04-09T00:35:20;51.47;;;28.17;;
2173;SDS011;1093;51.424;11.764;2023-04-09T00:37:49;53.40;;;29.17;;
2173;SDS011;1093;51.424;11.764;2023-04-09T00:40:15;50.50;;;29.40;;
2173;SDS011;1093;51.424;11.764;2023-04-09T00:42:42;55.50;;;29.77;;
2173;SDS011;1093;51.424;11.764;2023-04-09T00:45:09;49.40;;;30.47;;
2173;SDS011;1093;51.424;11.764;2023-04-09T00:47:36;50.40;;;29.17;;
2173;SDS011;1093;51.424;11.764;2023-04-09T00:50:03;53.93;;;29.47;;
2173;SDS011;1093;51.424;11.764;2023-04-09T00:52:31;49.53;;;28.70;;
2173;SDS011;1093;51.424;11.764;2023-04-09T00:54:59;54.57;;;30.47;;
2173;SDS011;1093;51.424;11.764;2023-04-09T00:57:28;47.00;;;27.80;;
2173;SDS011;1093;51.424;11.764;2023-04-09T00:59:55;50.17;;;28.63;;
2173;SDS011;1093;51.424;11.764;2023-04-09T01:02:22;51.83;;;29.70;;
2173;SDS011;1093;51.424;11.764;2023-04-09T01:04:48;52.10;;;29.43;;
2173;SDS011;1093;51.424;11.764;2023-04-09T01:07:17;49.33;;;31.73;;
2173;SDS011;1093;51.424;11.764;2023-04-09T01:09:49;51.93;;;29.97;;
2173;SDS011;1093;51.424;11.764;2023-04-09T01:12:28;57.17;;;30.90;;
2173;SDS011;1093;51.424;11.764;2023-04-09T01:15:05;51.70;;;30.27;;
2173;SDS011;1093;51.424;11.764;2023-04-09T01:17:37;50.33;;;29.07;;
2173;SDS011;1093;51.424;11.764;2023-04-09T01:20:10;45.70;;;27.47;;
2173;SDS011;1093;51.424;11.764;2023-04-09T01:22:41;51.63;;;29.40;;
2173;SDS011;1093;51.424;11.764;2023-04-09T01:25:29;51.20;;;28.10;;
2173;SDS011;1093;51.424;11.764;2023-04-09T01:28:13;54.33;;;30.33;;
2173;SDS011;1093;51.424;11.764;2023-04-09T01:30:42;47.40;;;28.90;;
2173;SDS011;1093;51.424;11.764;2023-04-09T01:33:11;47.70;;;28.50;;
2173;SDS011;1093;51.424;11.764;2023-04-09T01:35:40;48.73;;;27.80;;
2173;SDS011;1093;51.424;11.764;2023-04-09T01:38:09;51.67;;;28.77;;
2173;SDS011;1093;51.424;11.764;2023-04-09T01:40:37;49.10;;;29.00;;
2173;SDS011;1093;51.424;11.764;2023-04-09T01:43:04;47.77;;;30.73;;
2173;SDS011;1093;51.424;11.764;2023-04-09T01:45:34;43.07;;;26.20;;
2173;SDS011;1093;51.424;11.764;2023-04-09T01:48:01;50.37;;;26.70;;
2173;SDS011;1093;51.424;11.764;2023-04-09T01:50:29;51.60;;;28.13;;
2173;SDS011;1093;51.424;11.764;2023-04-09T01:52:57;46.73;;;26.60;;
2173;SDS011;1093;51.424;11.764;2023-04-09T01:55:25;52.03;;;30.20;;
2173;SDS011;1093;51.424;11.764;2023-04-09T01:57:52;41.23;;;27.30;;
2173;SDS011;1093;51.424;11.764;2023-04-09T02:00:18;51.93;;;27.90;;
2173;SDS011;1093;51.424;11.764;2023-04-09T02:02:51;54.57;;;31.10;;
2173;SDS011;1093;51.424;11.764;2023-04-09T02:05:21;41.10;;;27.03;;
2173;SDS011;1093;51.424;11.764;2023-04-09T02:07:51;42.20;;;27.27;;
2173;SDS011;1093;51.424;11.764;2023-04-09T02:10:21;47.20;;;29.10;;
2173;SDS011;1093;51.424;11.764;2023-04-09T02:12:51;45.03;;;26.70;;
2173;SDS011;1093;51.424;11.764;2023-04-09T02:15:20;50.83;;;28.47;;
2173;SDS011;1093;51.424;11.764;2023-04-09T02:17:49;53.67;;;30.60;;
2173;SDS011;1093;51.424;11.764;2023-04-09T02:20:16;59.50;;;31.30;;
2173;SDS011;1093;51.424;11.764;2023-04-09T02:22:43;46.20;;;28.43;;
2173;SDS011;1093;51.424;11.764;2023-04-09T02:25:10;56.13;;;31.33;;
2173;SDS011;1093;51.424;11.764;2023-04-09T02:27:37;61.00;;;30.07;;
2173;SDS011;1093;51.424;11.764;2023-04-09T02:30:04;52.53;;;31.00;;
2173;SDS011;1093;51.424;11.764;2023-04-09T02:32:31;56.53;;;33.57;;
2173;SDS011;1093;51.424;11.764;2023-04-09T02:34:59;59.30;;;31.63;;
2173;SDS011;1093;51.424;11.764;2023-04-09T02:37:26;46.20;;;29.73;;
2173;SDS011;1093;51.424;11.764;2023-04-09T02:39:53;48.80;;;30.60;;
2173;SDS011;1093;51.424;11.764;2023-04-09T02:42:19;53.63;;;30.20;;
2173;SDS011;1093;51.424;11.764;2023-04-09T02:44:46;57.87;;;32.40;;
2173;SDS011;1093;51.424;11.764;2023-04-09T02:47:13;56.40;;;30.10;;
2173;SDS011;1093;51.424;11.764;2023-04-09T02:49:39;54.57;;;31.97;;
2173;SDS011;1093;51.424;11.764;2023-04-09T02:52:08;62.20;;;32.63;;
2173;SDS011;1093;51.424;11.764;2023-04-09T02:54:35;58.40;;;32.90;;
2173;SDS011;1093;51.424;11.764;2023-04-09T02:57:01;53.17;;;29.53;;
2173;SDS011;1093;51.424;11.764;2023-04-09T02:59:28;46.57;;;28.47;;
2173;SDS011;1093;51.424;11.764;2023-04-09T03:01:57;49.50;;;28.33;;
2173;SDS011;1093;51.424;11.764;2023-04-09T03:04:23;44.83;;;29.10;;
2173;SDS011;1093;51.424;11.764;2023-04-09T03:06:50;47.93;;;29.30;;
2173;SDS011;1093;51.424;11.764;2023-04-09T03:09:18;52.80;;;30.90;;
2173;SDS011;1093;51.424;11.764;2023-04-09T03:11:45;52.13;;;31.27;;
2173;SDS011;1093;51.424;11.764;2023-04-09T03:14:11;51.03;;;28.70;;
2173;SDS011;1093;51.424;11.764;2023-04-09T03:16:38;52.90;;;30.27;;
2173;SDS011;1093;51.424;11.764;2023-04-09T03:19:05;53.70;;;32.63;;
2173;SDS011;1093;51.424;11.764;2023-04-09T03:21:32;52.97;;;31.03;;
2173;SDS011;1093;51.424;11.764;2023-04-09T03:23:58;48.13;;;30.23;;
2173;SDS011;1093;51.424;11.764;2023-04-09T03:26:27;45.87;;;27.83;;
2173;SDS011;1093;51.424;11.764;2023-04-09T03:29:00;50.23;;;26.97;;
2173;SDS011;1093;51.424;11.764;2023-04-09T03:31:26;55.17;;;28.77;;
2173;SDS011;1093;51.424;11.764;2023-04-09T03:33:53;54.10;;;30.43;;
2173;SDS011;1093;51.424;11.764;2023-04-09T03:36:20;55.37;;;32.07;;
2173;SDS011;1093;51.424;11.764;2023-04-09T03:38:47;48.63;;;28.60;;
2173;SDS011;1093;51.424;11.764;2023-04-09T03:41:13;50.47;;;28.40;;
2173;SDS011;1093;51.424;11.764;2023-04-09T03:43:42;48.03;;;30.23;;
2173;SDS011;1093;51.424;11.764;2023-04-09T03:46:12;52.70;;;30.80;;
2173;SDS011;1093;51.424;11.764;2023-04-09T03:48:39;47.10;;;26.50;;
2173;SDS011;1093;51.424;11.764;2023-04-09T03:51:10;52.53;;;26.10;;
2173;SDS011;1093;51.424;11.764;2023-04-09T03:53:37;46.80;;;26.30;;
2173;SDS011;1093;51.424;11.764;2023-04-09T03:56:04;40.87;;;24.23;;
2173;SDS011;1093;51.424;11.764;2023-04-09T03:58:31;39.00;;;24.87;;
2173;SDS011;1093;51.424;11.764;2023-04-09T04:00:59;56.63;;;27.00;;
2173;SDS011;1093;51.424;11.764;2023-04-09T04:03:26;44.70;;;26.70;;
2173;SDS011;1093;51.424;11.764;2023-04-09T04:05:58;46.97;;;28.43;;
2173;SDS011;1093;51.424;11.764;2023-04-09T04:08:25;58.63;;;30.73;;
2173;SDS011;1093;51.424;11.764;2023-04-09T04:10:52;50.27;;;27.57;;
2173;SDS011;1093;51.424;11.764;2023-04-09T04:13:18;50.50;;;29.77;;
2173;SDS011;1093;51.424;11.764;2023-04-09T04:15:45;39.90;;;25.20;;
2173;SDS011;1093;51.424;11.764;2023-04-09T04:18:13;43.70;;;24.27;;
2173;SDS011;1093;51.424;11.764;2023-04-09T04:20:40;40.43;;;22.20;;
2173;SDS011;1093;51.424;11.764;2023-04-09T04:23:06;38.27;;;22.20;;
2173;SDS011;1093;51.424;11.764;2023-04-09T04:25:33;32.90;;;20.57;;
2173;SDS011;1093;51.424;11.764;2023-04-09T04:28:00;36.40;;;20.03;;
2173;SDS011;1093;51.424;11.764;2023-04-09T04:30:26;34.40;;;19.97;;
2173;SDS011;1093;51.424;11.764;2023-04-09T04:32:53;38.10;;;22.00;;
2173;SDS011;1093;51.424;11.764;2023-04-09T04:35:21;37.70;;;23.20;;
2173;SDS011;1093;51.424;11.764;2023-04-09T04:37:48;36.67;;;21.00;;
2173;SDS011;1093;51.424;11.764;2023-04-09T04:40:15;34.50;;;21.10;;
2173;SDS011;1093;51.424;11.764;2023-04-09T04:42:42;40.80;;;21.30;;
2173;SDS011;1093;51.424;11.764;2023-04-09T04:45:09;39.87;;;22.97;;
2173;SDS011;1093;51.424;11.764;2023-04-09T04:47:36;41.47;;;23.17;;
2173;SDS011;1093;51.424;11.764;2023-04-09T04:50:03;35.43;;;23.20;;
2173;SDS011;1093;51.424;11.764;2023-04-09T04:52:32;40.23;;;23.50;;
2173;SDS011;1093;51.424;11.764;2023-04-09T04:54:59;43.20;;;23.70;;
2173;SDS011;1093;51.424;11.764;2023-04-09T04:57:25;42.03;;;22.87;;
2173;SDS011;1093;51.424;11.764;2023-04-09T04:59:52;43.33;;;23.53;;
2173;SDS011;1093;51.424;11.764;2023-04-09T05:02:21;34.47;;;21.77;;
2173;SDS011;1093;51.424;11.764;2023-04-09T05:04:48;33.27;;;18.73;;
2173;SDS011;1093;51.424;11.764;2023-04-09T05:07:14;45.50;;;21.93;;
2173;SDS011;1093;51.424;11.764;2023-04-09T05:09:42;36.33;;;22.33;;
2173;SDS011;1093;51.424;11.764;2023-04-09T05:12:09;46.30;;;24.13;;
2173;SDS011;1093;51.424;11.764;2023-04-09T05:14:36;42.07;;;23.40;;
2173;SDS011;1093;51.424;11.764;2023-04-09T05:17:03;39.83;;;22.20;;
2173;SDS011;1093;51.424;11.764;2023-04-09T05:19:29;40.83;;;22.57;;
2173;SDS011;1093;51.424;11.764;2023-04-09T05:21:56;39.20;;;22.30;;
2173;SDS011;1093;51.424;11.764;2023-04-09T05:24:23;39.53;;;23.30;;
2173;SDS011;1093;51.424;11.764;2023-04-09T05:26:51;45.40;;;25.67;;
2173;SDS011;1093;51.424;11.764;2023-04-09T05:29:18;48.50;;;25.83;;
2173;SDS011;1093;51.424;11.764;2023-04-09T05:31:45;44.17;;;24.00;;
2173;SDS011;1093;51.424;11.764;2023-04-09T05:34:11;41.40;;;21.23;;
2173;SDS011;1093;51.424;11.764;2023-04-09T05:36:38;40.00;;;23.53;;
2173;SDS011;1093;51.424;11.764;2023-04-09T05:39:05;48.60;;;23.40;;
2173;SDS011;1093;51.424;11.764;2023-04-09T05:41:33;40.70;;;25.17;;
2173;SDS011;1093;51.424;11.764;2023-04-09T05:44:02;37.13;;;23.67;;
2173;SDS011;1093;51.424;11.764;2023-04-09T05:46:29;46.60;;;26.63;;
2173;SDS011;1093;51.424;11.764;2023-04-09T05:48:56;46.33;;;26.60;;
2173;SDS011;1093;51.424;11.764;2023-04-09T05:51:23;51.00;;;25.90;;
2173;SDS011;1093;51.424;11.764;2023-04-09T05:53:49;43.07;;;24.00;;
2173;SDS011;1093;51.424;11.764;2023-04-09T05:56:16;47.50;;;25.20;;
2173;SDS011;1093;51.424;11.764;2023-04-09T05:58:43;58.83;;;29.87;;
2173;SDS011;1093;51.424;11.764;2023-04-09T06:01:11;49.07;;;27.80;;
2173;SDS011;1093;51.424;11.764;2023-04-09T06:03:38;57.33;;;28.53;;
2173;SDS011;1093;51.424;11.764;2023-04-09T06:06:05;60.03;;;32.07;;
2173;SDS011;1093;51.424;11.764;2023-04-09T06:08:32;70.30;;;36.50;;
2173;SDS011;1093;51.424;11.764;2023-04-09T06:10:58;70.87;;;36.93;;
2173;SDS011;1093;51.424;11.764;2023-04-09T06:13:25;79.50;;;40.53;;
2173;SDS011;1093;51.424;11.764;2023-04-09T06:15:52;73.00;;;36.47;;
2173;SDS011;1093;51.424;11.764;2023-04-09T06:18:20;84.20;;;42.90;;
2173;SDS011;1093;51.424;11.764;2023-04-09T06:20:46;89.30;;;41.73;;
2173;SDS011;1093;51.424;11.764;2023-04-09T06:23:13;83.50;;;43.90;;
2173;SDS011;1093;51.424;11.764;2023-04-09T06:25:40;82.77;;;43.63;;
2173;SDS011;1093;51.424;11.764;2023-04-09T06:28:07;103.13;;;47.20;;
2173;SDS011;1093;51.424;11.764;2023-04-09T06:30:33;81.27;;;44.83;;
2173;SDS011;1093;51.424;11.764;2023-04-09T06:33:00;85.20;;;45.20;;
2173;SDS011;1093;51.424;11.764;2023-04-09T06:35:28;99.63;;;47.20;;
2173;SDS011;1093;51.424;11.764;2023-04-09T06:37:55;102.40;;;48.80;;
2173;SDS011;1093;51.424;11.764;2023-04-09T06:40:22;95.53;;;45.77;;
2173;SDS011;1093;51.424;11.764;2023-04-09T06:42:49;95.47;;;49.37;;
2173;SDS011;1093;51.424;11.764;2023-04-09T06:45:15;95.23;;;44.57;;
2173;SDS011;1093;51.424;11.764;2023-04-09T06:47:42;104.70;;;48.60;;
2173;SDS011;1093;51.424;11.764;2023-04-09T06:50:09;92.10;;;48.50;;
2173;SDS011;1093;51.424;11.764;2023-04-09T06:52:37;105.17;;;49.47;;
2173;SDS011;1093;51.424;11.764;2023-04-09T06:55:04;105.20;;;50.33;;
2173;SDS011;1093;51.424;11.764;2023-04-09T06:57:31;78.53;;;44.20;;
2173;SDS011;1093;51.424;11.764;2023-04-09T06:59:57;92.73;;;48.50;;
2173;SDS011;1093;51.424;11.764;2023-04-09T07:02:24;101.80;;;49.30;;
2173;SDS011;1093;51.424;11.764;2023-04-09T07:04:51;101.07;;;48.37;;
2173;SDS011;1093;51.424;11.764;2023-04-09T07:07:18;103.10;;;50.60;;
2173;SDS011;1093;51.424;11.764;2023-04-09T07:09:47;107.50;;;51.27;;
2173;SDS011;1093;51.424;11.764;2023-04-09T07:12:14;102.57;;;47.53;;
2173;SDS011;1093;51.424;11.764;2023-04-09T07:14:51;99.17;;;49.13;;
2173;SDS011;1093;51.424;11.764;2023-04-09T07:17:18;91.13;;;47.30;;
2173;SDS011;1093;51.424;11.764;2023-04-09T07:19:44;96.27;;;47.40;;
2173;SDS011;1093;51.424;11.764;2023-04-09T07:22:11;92.00;;;46.23;;
2173;SDS011;1093;51.424;11.764;2023-04-09T07:24:38;93.00;;;45.83;;
2173;SDS011;1093;51.424;11.764;2023-04-09T07:27:07;90.70;;;46.17;;
2173;SDS011;1093;51.424;11.764;2023-04-09T07:29:33;89.37;;;49.07;;
2173;SDS011;1093;51.424;11.764;2023-04-09T07:32:00;90.77;;;48.70;;
2173;SDS011;1093;51.424;11.764;2023-04-09T07:34:27;88.23;;;46.70;;
2173;SDS011;1093;51.424;11.764;2023-04-09T07:36:54;81.23;;;43.90;;
2173;SDS011;1093;51.424;11.764;2023-04-09T07:39:20;79.10;;;47.63;;
2173;SDS011;1093;51.424;11.764;2023-04-09T07:41:47;95.57;;;48.07;;
2173;SDS011;1093;51.424;11.764;2023-04-09T07:44:16;86.23;;;46.80;;
2173;SDS011;1093;51.424;11.764;2023-04-09T07:46:42;85.03;;;44.93;;
2173;SDS011;1093;51.424;11.764;2023-04-09T07:49:09;70.30;;;41.77;;
2173;SDS011;1093;51.424;11.764;2023-04-09T07:51:35;81.17;;;44.30;;
2173;SDS011;1093;51.424;11.764;2023-04-09T07:54:02;81.73;;;42.57;;
2173;SDS011;1093;51.424;11.764;2023-04-09T07:56:29;77.10;;;42.77;;
2173;SDS011;1093;51.424;11.764;2023-04-09T07:58:56;72.60;;;40.30;;
2173;SDS011;1093;51.424;11.764;2023-04-09T08:01:24;80.87;;;43.50;;
2173;SDS011;1093;51.424;11.764;2023-04-09T08:03:50;84.30;;;43.80;;
2173;SDS011;1093;51.424;11.764;2023-04-09T08:06:17;70.63;;;41.10;;
2173;SDS011;1093;51.424;11.764;2023-04-09T08:08:44;64.60;;;38.43;;
2173;SDS011;1093;51.424;11.764;2023-04-09T08:11:11;75.53;;;38.27;;
2173;SDS011;1093;51.424;11.764;2023-04-09T08:13:37;67.63;;;36.83;;
2173;SDS011;1093;51.424;11.764;2023-04-09T08:16:04;70.87;;;39.63;;
2173;SDS011;1093;51.424;11.764;2023-04-09T08:18:32;63.50;;;38.40;;
2173;SDS011;1093;51.424;11.764;2023-04-09T08:21:02;69.17;;;38.77;;
2173;SDS011;1093;51.424;11.764;2023-04-09T08:23:29;62.67;;;38.30;;
2173;SDS011;1093;51.424;11.764;2023-04-09T08:25:56;62.53;;;37.50;;
2173;SDS011;1093;51.424;11.764;2023-04-09T08:28:23;65.20;;;38.83;;
2173;SDS011;1093;51.424;11.764;2023-04-09T08:30:49;65.87;;;38.30;;
2173;SDS011;1093;51.424;11.764;2023-04-09T08:33:16;56.43;;;34.50;;
2173;SDS011;1093;51.424;11.764;2023-04-09T08:35:44;59.00;;;35.40;;
2173;SDS011;1093;51.424;11.764;2023-04-09T08:38:11;57.37;;;35.20;;
2173;SDS011;1093;51.424;11.764;2023-04-09T08:40:38;56.27;;;34.93;;
2173;SDS011;1093;51.424;11.764;2023-04-09T08:43:06;53.27;;;35.17;;
2173;SDS011;1093;51.424;11.764;2023-04-09T08:45:33;56.90;;;35.57;;
2173;SDS011;1093;51.424;11.764;2023-04-09T08:48:01;57.27;;;35.73;;
2173;SDS011;1093;51.424;11.764;2023-04-09T08:50:29;56.53;;;34.27;;
2173;SDS011;1093;51.424;11.764;2023-04-09T08:54:58;56.33;;;34.27;;
2173;SDS011;1093;51.424;11.764;2023-04-09T08:57:25;57.83;;;33.97;;
2173;SDS011;1093;51.424;11.764;2023-04-09T08:59:52;53.53;;;33.80;;
2173;SDS011;1093;51.424;11.764;2023-04-09T14:34:25;11.77;;;9.37;;
2173;SDS011;1093;51.424;11.764;2023-04-09T14:36:54;12.50;;;9.03;;
2173;SDS011;1093;51.424;11.764;2023-04-09T14:39:22;11.87;;;9.17;;
2173;SDS011;1093;51.424;11.764;2023-04-09T14:41:49;9.40;;;8.40;;
2173;SDS011;1093;51.424;11.764;2023-04-09T14:44:16;11.37;;;8.67;;
2173;SDS011;1093;51.424;11.764;2023-04-09T14:46:46;11.60;;;9.10;;
2173;SDS011;1093;51.424;11.764;2023-04-09T14:49:15;12.03;;;9.33;;
2173;SDS011;1093;51.424;11.764;2023-04-09T14:51:44;15.10;;;11.33;;
2173;SDS011;1093;51.424;11.764;2023-04-09T14:54:11;10.40;;;9.17;;
2173;SDS011;1093;51.424;11.764;2023-04-09T14:56:38;12.80;;;10.03;;
2173;SDS011;1093;51.424;11.764;2023-04-09T14:59:06;11.70;;;9.27;;
2173;SDS011;1093;51.424;11.764;2023-04-09T15:01:32;14.80;;;10.87;;
2173;SDS011;1093;51.424;11.764;2023-04-09T15:03:59;12.33;;;10.40;;
2173;SDS011;1093;51.424;11.764;2023-04-09T15:06:27;14.90;;;11.47;;
2173;SDS011;1093;51.424;11.764;2023-04-09T15:08:58;15.20;;;10.97;;
2173;SDS011;1093;51.424;11.764;2023-04-09T15:11:25;14.87;;;11.30;;
2173;SDS011;1093;51.424;11.764;2023-04-09T15:13:52;15.93;;;13.13;;
2173;SDS011;1093;51.424;11.764;2023-04-09T15:16:20;17.40;;;12.23;;
2173;SDS011;1093;51.424;11.764;2023-04-09T15:18:47;19.70;;;15.93;;
2173;SDS011;1093;51.424;11.764;2023-04-09T15:21:15;20.93;;;17.03;;
2173;SDS011;1093;51.424;11.764;2023-04-09T15:23:42;16.93;;;13.60;;
2173;SDS011;1093;51.424;11.764;2023-04-09T15:26:11;19.20;;;15.97;;
2173;SDS011;1093;51.424;11.764;2023-04-09T15:28:38;19.80;;;15.03;;
2173;SDS011;1093;51.424;11.764;2023-04-09T15:31:06;23.00;;;16.37;;
2173;SDS011;1093;51.424;11.764;2023-04-09T15:33:33;19.30;;;15.13;;
2173;SDS011;1093;51.424;11.764;2023-04-09T15:36:00;20.27;;;15.57;;
2173;SDS011;1093;51.424;11.764;2023-04-09T15:38:27;23.20;;;16.93;;
2173;SDS011;1093;51.424;11.764;2023-04-09T15:40:54;20.80;;;15.87;;
2173;SDS011;1093;51.424;11.764;2023-04-09T15:43:23;23.83;;;18.80;;
2173;SDS011;1093;51.424;11.764;2023-04-09T15:45:51;22.80;;;16.80;;
2173;SDS011;1093;51.424;11.764;2023-04-09T15:48:18;27.17;;;18.83;;
2173;SDS011;1093;51.424;11.764;2023-04-09T15:50:45;24.30;;;18.87;;
2173;SDS011;1093;51.424;11.764;2023-04-09T15:53:12;22.67;;;18.30;;
2173;SDS011;1093;51.424;11.764;2023-04-09T15:55:39;22.57;;;16.13;;
2173;SDS011;1093;51.424;11.764;2023-04-09T15:58:08;22.60;;;16.87;;
2173;SDS011;1093;51.424;11.764;2023-04-09T16:00:36;21.83;;;16.23;;
2173;SDS011;1093;51.424;11.764;2023-04-09T16:03:03;23.10;;;16.50;;
2173;SDS011;1093;51.424;11.764;2023-04-09T16:05:30;25.27;;;17.47;;
2173;SDS011;1093;51.424;11.764;2023-04-09T16:07:57;19.07;;;15.67;;
2173;SDS011;1093;51.424;11.764;2023-04-09T16:10:24;23.53;;;17.00;;
2173;SDS011;1093;51.424;11.764;2023-04-09T16:12:50;22.43;;;16.40;;
2173;SDS011;1093;51.424;11.764;2023-04-09T16:15:17;21.17;;;16.90;;
2173;SDS011;1093;51.424;11.764;2023-04-09T16:17:46;22.63;;;18.40;;
2173;SDS011;1093;51.424;11.764;2023-04-09T16:20:13;23.80;;;18.10;;
2173;SDS011;1093;51.424;11.764;2023-04-09T16:22:40;23.70;;;17.20;;
2173;SDS011;1093;51.424;11.764;2023-04-09T16:25:07;25.23;;;18.90;;
2173;SDS011;1093;51.424;11.764;2023-04-09T16:27:34;24.87;;;19.13;;
2173;SDS011;1093;51.424;11.764;2023-04-09T16:30:01;26.37;;;19.90;;
2173;SDS011;1093;51.424;11.764;2023-04-09T16:32:28;23.37;;;17.20;;
2173;SDS011;1093;51.424;11.764;2023-04-09T16:34:56;20.97;;;15.63;;
2173;SDS011;1093;51.424;11.764;2023-04-09T16:37:24;18.77;;;14.90;;
2173;SDS011;1093;51.424;11.764;2023-04-09T16:39:51;20.63;;;16.07;;
2173;SDS011;1093;51.424;11.764;2023-04-09T16:42:18;21.33;;;16.07;;
2173;SDS011;1093;51.424;11.764;2023-04-09T16:44:44;22.43;;;17.17;;
2173;SDS011;1093;51.424;11.764;2023-04-09T16:47:11;21.23;;;16.33;;
2173;SDS011;1093;51.424;11.764;2023-04-09T16:49:38;21.00;;;15.33;;
2173;SDS011;1093;51.424;11.764;2023-04-09T16:52:06;22.43;;;16.33;;
2173;SDS011;1093;51.424;11.764;2023-04-09T16:54:33;26.00;;;17.90;;
2173;SDS011;1093;51.424;11.764;2023-04-09T16:56:59;22.10;;;16.90;;
2173;SDS011;1093;51.424;11.764;2023-04-09T16:59:26;21.23;;;14.87;;
2173;SDS011;1093;51.424;11.764;2023-04-09T17:01:53;18.47;;;14.60;;
2173;SDS011;1093;51.424;11.764;2023-04-09T17:04:20;19.17;;;15.00;;
2173;SDS011;1093;51.424;11.764;2023-04-09T17:06:46;22.37;;;15.47;;
2173;SDS011;1093;51.424;11.764;2023-04-09T17:09:14;24.57;;;17.90;;
2173;SDS011;1093;51.424;11.764;2023-04-09T17:11:41;22.53;;;15.43;;
2173;SDS011;1093;51.424;11.764;2023-04-09T17:14:08;20.07;;;14.67;;
2173;SDS011;1093;51.424;11.764;2023-04-09T17:16:35;16.13;;;13.07;;
2173;SDS011;1093;51.424;11.764;2023-04-09T17:19:02;15.10;;;11.90;;
2173;SDS011;1093;51.424;11.764;2023-04-09T17:21:29;15.67;;;12.27;;
2173;SDS011;1093;51.424;11.764;2023-04-09T17:23:55;18.43;;;14.33;;
2173;SDS011;1093;51.424;11.764;2023-04-09T17:26:24;17.57;;;13.00;;
2173;SDS011;1093;51.424;11.764;2023-04-09T17:28:50;16.07;;;12.53;;
2173;SDS011;1093;51.424;11.764;2023-04-09T17:31:17;17.63;;;12.97;;
2173;SDS011;1093;51.424;11.764;2023-04-09T17:33:47;15.20;;;11.23;;
2173;SDS011;1093;51.424;11.764;2023-04-09T17:36:16;13.87;;;11.20;;
2173;SDS011;1093;51.424;11.764;2023-04-09T17:38:43;17.17;;;12.73;;
2173;SDS011;1093;51.424;11.764;2023-04-09T17:41:11;15.80;;;11.87;;
2173;SDS011;1093;51.424;11.764;2023-04-09T17:43:39;17.40;;;13.47;;
2173;SDS011;1093;51.424;11.764;2023-04-09T17:46:06;15.70;;;12.10;;
2173;SDS011;1093;51.424;11.764;2023-04-09T17:48:34;15.87;;;11.37;;
2173;SDS011;1093;51.424;11.764;2023-04-09T17:51:01;18.87;;;12.63;;
2173;SDS011;1093;51.424;11.764;2023-04-09T17:53:28;14.17;;;10.93;;
2173;SDS011;1093;51.424;11.764;2023-04-09T17:55:54;10.70;;;9.60;;
2173;SDS011;1093;51.424;11.764;2023-04-09T17:58:21;12.93;;;10.13;;
2173;SDS011;1093;51.424;11.764;2023-04-09T18:00:50;12.77;;;10.50;;
2173;SDS011;1093;51.424;11.764;2023-04-09T18:03:17;17.20;;;10.93;;
2173;SDS011;1093;51.424;11.764;2023-04-09T18:05:44;14.60;;;11.23;;
2173;SDS011;1093;51.424;11.764;2023-04-09T18:08:11;17.17;;;13.00;;
2173;SDS011;1093;51.424;11.764;2023-04-09T18:10:37;14.03;;;12.13;;
2173;SDS011;1093;51.424;11.764;2023-04-09T18:13:04;17.53;;;12.60;;
2173;SDS011;1093;51.424;11.764;2023-04-09T18:15:31;20.27;;;14.07;;
2173;SDS011;1093;51.424;11.764;2023-04-09T18:17:59;16.97;;;13.80;;
2173;SDS011;1093;51.424;11.764;2023-04-09T18:20:25;21.37;;;15.40;;
2173;SDS011;1093;51.424;11.764;2023-04-09T18:22:52;23.83;;;16.80;;
2173;SDS011;1093;51.424;11.764;2023-04-09T18:25:20;22.57;;;17.60;;
2173;SDS011;1093;51.424;11.764;2023-04-09T18:27:47;19.17;;;16.47;;
2173;SDS011;1093;51.424;11.764;2023-04-09T18:30:13;19.73;;;14.80;;
2173;SDS011;1093;51.424;11.764;2023-04-09T18:32:40;17.90;;;12.97;;
2173;SDS011;1093;51.424;11.764;2023-04-09T18:35:09;18.63;;;12.97;;
2173;SDS011;1093;51.424;11.764;2023-04-09T18:37:36;18.27;;;14.20;;
2173;SDS011;1093;51.424;11.764;2023-04-09T18:40:03;15.10;;;11.37;;
2173;SDS011;1093;51.424;11.764;2023-04-09T18:42:31;18.53;;;13.43;;
2173;SDS011;1093;51.424;11.764;2023-04-09T18:44:58;21.40;;;15.57;;
2173;SDS011;1093;51.424;11.764;2023-04-09T18:47:25;19.30;;;15.93;;
2173;SDS011;1093;51.424;11.764;2023-04-09T18:49:52;22.40;;;16.77;;
2173;SDS011;1093;51.424;11.764;2023-04-09T18:52:20;18.03;;;14.50;;
2173;SDS011;1093;51.424;11.764;2023-04-09T18:54:46;18.90;;;13.87;;
2173;SDS011;1093;51.424;11.764;2023-04-09T18:57:13;19.90;;;14.03;;
2173;SDS011;1093;51.424;11.764;2023-04-09T18:59:40;21.40;;;15.30;;
2173;SDS011;1093;51.424;11.764;2023-04-09T19:02:09;18.80;;;14.47;;
2173;SDS011;1093;51.424;11.764;2023-04-09T19:04:36;21.03;;;16.93;;
2173;SDS011;1093;51.424;11.764;2023-04-09T19:07:05;21.10;;;14.87;;
2173;SDS011;1093;51.424;11.764;2023-04-09T19:09:34;23.30;;;16.60;;
2173;SDS011;1093;51.424;11.764;2023-04-09T19:12:01;20.70;;;14.87;;
2173;SDS011;1093;51.424;11.764;2023-04-09T19:14:28;19.23;;;14.60;;
2173;SDS011;1093;51.424;11.764;2023-04-09T19:16:54;24.80;;;16.67;;
2173;SDS011;1093;51.424;11.764;2023-04-09T19:19:22;23.17;;;14.37;;
2173;SDS011;1093;51.424;11.764;2023-04-09T19:21:49;21.93;;;15.80;;
2173;SDS011;1093;51.424;11.764;2023-04-09T19:24:16;20.97;;;14.43;;
2173;SDS011;1093;51.424;11.764;2023-04-09T19:26:44;22.30;;;14.33;;
2173;SDS011;1093;51.424;11.764;2023-04-09T19:29:11;18.53;;;14.00;;
2173;SDS011;1093;51.424;11.764;2023-04-09T19:31:38;22.00;;;13.87;;
2173;SDS011;1093;51.424;11.764;2023-04-09T19:34:06;17.07;;;13.90;;
2173;SDS011;1093;51.424;11.764;2023-04-09T19:36:34;22.30;;;14.33;;
2173;SDS011;1093;51.424;11.764;2023-04-09T19:39:01;20.47;;;14.90;;
2173;SDS011;1093;51.424;11.764;2023-04-09T19:41:28;18.13;;;14.63;;
2173;SDS011;1093;51.424;11.764;2023-04-09T19:43:56;19.70;;;14.67;;
2173;SDS011;1093;51.424;11.764;2023-04-09T19:46:25;24.97;;;15.27;;
2173;SDS011;1093;51.424;11.764;2023-04-09T19:48:51;22.67;;;16.00;;
2173;SDS011;1093;51.424;11.764;2023-04-09T19:51:20;28.00;;;17.47;;
2173;SDS011;1093;51.424;11.764;2023-04-09T19:53:47;19.60;;;14.63;;
2173;SDS011;1093;51.424;11.764;2023-04-09T19:56:14;19.10;;;13.10;;
2173;SDS011;1093;51.424;11.764;2023-04-09T19:58:41;17.90;;;13.50;;
2173;SDS011;1093;51.424;11.764;2023-04-09T20:01:10;17.37;;;13.93;;
2173;SDS011;1093;51.424;11.764;2023-04-09T20:03:37;18.50;;;12.80;;
2173;SDS011;1093;51.424;11.764;2023-04-09T20:06:07;22.17;;;14.60;;
2173;SDS011;1093;51.424;11.764;2023-04-09T20:08:34;17.57;;;13.37;;